Time;durP1;ratioP1;P1;durP2;ratioP2;P2;SDS_P1;SDS_P2;PMS_P1;PMS_P2;Temp;Humidity;BMP_temperature;BMP_pressure;BME280_temperature;BME280_humidity;BME280_pressure;Samples;Min_cycle;Max_cycle;Signal;HPM_P1;HPM_P2
2021/07/07 00:02:33;;;;;;;5.85;1.67;;;;;;;;;;6981556;28;20455;-79
2021/07/07 00:05:53;;;;;;;1.77;1.60;;;;;;;;;;6977278;28;20048;-79
2021/07/07 00:09:14;;;;;;;2.05;1.30;;;;;;;;;;6974944;28;20056;-79
2021/07/07 00:12:35;;;;;;;5.07;1.48;;;;;;;;;;6982349;28;20048;-79
2021/07/07 00:15:55;;;;;;;1.90;1.80;;;;;;;;;;6969219;28;20126;-79
2021/07/07 00:19:16;;;;;;;1.70;1.60;;;;;;;;;;6981528;28;20056;-80
2021/07/07 00:22:36;;;;;;;2.85;1.80;;;;;;;;;;6983537;28;20049;-79
2021/07/07 00:25:57;;;;;;;3.85;1.42;;;;;;;;;;6968512;28;20486;-79
2021/07/07 00:29:18;;;;;;;1.75;1.40;;;;;;;;;;6967763;28;20057;-79
2021/07/07 00:32:38;;;;;;;1.55;1.45;;;;;;;;;;6978867;28;20045;-79
2021/07/07 00:35:58;;;;;;;1.73;1.40;;;;;;;;;;6970202;28;20132;-79
2021/07/07 00:39:19;;;;;;;1.88;1.70;;;;;;;;;;6968599;28;20049;-79
2021/07/07 00:42:39;;;;;;;3.33;1.75;;;;;;;;;;6968337;28;20041;-79
2021/07/07 00:46:02;;;;;;;2.45;1.77;;;;;;;;;;6967984;28;20056;-81
2021/07/07 00:49:23;;;;;;;2.17;1.38;;;;;;;;;;6981244;28;20041;-80
2021/07/07 00:52:43;;;;;;;1.88;1.67;;;;;;;;;;6968385;28;20151;-81
2021/07/07 00:56:04;;;;;;;2.72;1.98;;;;;;;;;;6962791;28;20041;-81
2021/07/07 00:59:25;;;;;;;2.05;1.50;;;;;;;;;;6950221;28;20087;-81
2021/07/07 01:02:47;;;;;;;1.20;1.20;;;;;;;;;;6980002;28;20410;-83
2021/07/07 01:06:07;;;;;;;1.98;1.58;;;;;;;;;;6967945;28;20391;-81
2021/07/07 01:09:28;;;;;;;2.05;1.45;;;;;;;;;;6967956;28;20483;-81
2021/07/07 01:12:48;;;;;;;1.40;1.27;;;;;;;;;;6967927;28;20044;-81
2021/07/07 01:16:09;;;;;;;3.80;1.60;;;;;;;;;;6971948;28;20395;-82
2021/07/07 01:19:29;;;;;;;2.55;1.52;;;;;;;;;;6982769;28;20071;-81
2021/07/07 01:22:50;;;;;;;2.65;1.60;;;;;;;;;;6981308;28;20044;-82
2021/07/07 01:26:11;;;;;;;1.83;1.50;;;;;;;;;;7010822;22;20049;-82
2021/07/07 01:29:32;;;;;;;2.38;1.08;;;;;;;;;;7105044;27;20442;-82
2021/07/07 01:32:53;;;;;;;4.63;1.27;;;;;;;;;;7107069;27;20418;-81
2021/07/07 01:36:13;;;;;;;1.30;1.20;;;;;;;;;;7094485;27;20049;-81
2021/07/07 01:39:34;;;;;;;1.95;1.60;;;;;;;;;;7093400;27;20086;-82
2021/07/07 01:42:54;;;;;;;1.20;1.13;;;;;;;;;;7107936;27;20066;-81
2021/07/07 01:46:15;;;;;;;1.45;1.35;;;;;;;;;;7102517;27;20050;-81
2021/07/07 01:49:35;;;;;;;1.75;1.48;;;;;;;;;;7108344;27;20078;-81
2021/07/07 01:52:56;;;;;;;1.40;1.30;;;;;;;;;;7109286;27;20407;-81
2021/07/07 01:56:16;;;;;;;2.25;1.35;;;;;;;;;;7097276;27;20134;-81
2021/07/07 01:59:37;;;;;;;1.70;1.33;;;;;;;;;;7107151;27;20091;-81
2021/07/07 02:02:58;;;;;;;1.45;1.35;;;;;;;;;;7103391;27;20074;-81
2021/07/07 02:06:18;;;;;;;6.18;1.40;;;;;;;;;;7107246;27;20034;-80
2021/07/07 02:09:39;;;;;;;3.85;1.48;;;;;;;;;;7107422;27;20049;-80
2021/07/07 02:12:59;;;;;;;2.05;1.50;;;;;;;;;;7097203;27;20169;-80
2021/07/07 02:16:20;;;;;;;2.70;1.40;;;;;;;;;;7106757;27;20049;-80
2021/07/07 02:19:41;;;;;;;4.20;1.50;;;;;;;;;;7107431;27;20422;-80
2021/07/07 02:23:01;;;;;;;1.25;1.15;;;;;;;;;;7107106;27;20480;-80
2021/07/07 02:26:22;;;;;;;1.90;1.40;;;;;;;;;;7102228;27;20079;-80
2021/07/07 02:29:42;;;;;;;2.38;1.50;;;;;;;;;;7092417;27;20070;-80
2021/07/07 02:33:04;;;;;;;1.50;1.35;;;;;;;;;;7106992;27;20043;-80
2021/07/07 02:36:25;;;;;;;1.45;1.35;;;;;;;;;;7106772;27;20502;-80
2021/07/07 02:39:45;;;;;;;1.40;1.30;;;;;;;;;;7096720;27;20044;-81
2021/07/07 02:43:07;;;;;;;3.10;1.10;;;;;;;;;;7111434;27;20057;-81
2021/07/07 02:46:27;;;;;;;1.52;1.13;;;;;;;;;;7097102;27;20112;-81
2021/07/07 02:49:48;;;;;;;2.35;1.30;;;;;;;;;;7086397;27;20500;-81
2021/07/07 02:53:10;;;;;;;1.42;1.33;;;;;;;;;;7104548;27;20082;-81
2021/07/07 02:56:30;;;;;;;1.30;1.17;;;;;;;;;;7099710;27;20531;-81
2021/07/07 02:59:50;;;;;;;2.70;1.27;;;;;;;;;;7111165;27;20047;-81
2021/07/07 03:03:25;;;;;;;1.15;1.05;;;;;;;;;;7111295;27;20043;-82
2021/07/07 03:06:45;;;;;;;1.55;1.23;;;;;;;;;;7108969;27;20084;-82
2021/07/07 03:10:08;;;;;;;1.30;1.20;;;;;;;;;;7109215;27;20054;-81
2021/07/07 03:13:29;;;;;;;1.40;1.30;;;;;;;;;;7092493;27;20043;-82
2021/07/07 03:16:50;;;;;;;1.27;1.20;;;;;;;;;;7110968;27;20061;-82
2021/07/07 03:20:10;;;;;;;1.40;1.30;;;;;;;;;;7108046;27;20030;-82
2021/07/07 03:23:31;;;;;;;3.22;1.40;;;;;;;;;;7096546;27;20054;-82
2021/07/07 03:26:51;;;;;;;1.63;1.50;;;;;;;;;;7096797;27;20138;-82
2021/07/07 03:30:12;;;;;;;1.85;1.40;;;;;;;;;;7109939;27;20053;-81
2021/07/07 03:33:32;;;;;;;1.02;1.00;;;;;;;;;;7110401;27;20096;-81
2021/07/07 03:36:53;;;;;;;2.22;1.42;;;;;;;;;;7097301;27;20043;-81
2021/07/07 03:40:14;;;;;;;1.33;1.23;;;;;;;;;;7110490;27;20515;-81
2021/07/07 03:43:34;;;;;;;1.38;1.27;;;;;;;;;;7110603;27;20039;-80
2021/07/07 03:46:54;;;;;;;2.17;1.10;;;;;;;;;;7110302;27;20099;-81
2021/07/07 03:50:16;;;;;;;2.20;1.17;;;;;;;;;;7102305;27;20766;-81
2021/07/07 03:53:36;;;;;;;1.58;1.05;;;;;;;;;;7109452;27;20042;-80
2021/07/07 03:56:57;;;;;;;2.17;1.38;;;;;;;;;;7109618;27;20403;-81
2021/07/07 04:00:24;;;;;;;1.33;1.23;;;;;;;;;;7109781;27;20540;-81
2021/07/07 04:03:44;;;;;;;1.25;1.15;;;;;;;;;;7104939;27;20042;-81
2021/07/07 04:07:04;;;;;;;1.52;1.27;;;;;;;;;;7109871;27;20092;-81
2021/07/07 04:10:25;;;;;;;2.33;1.50;;;;;;;;;;7109567;27;20046;-82
2021/07/07 04:13:47;;;;;;;0.90;0.90;;;;;;;;;;7110705;27;20088;-81
2021/07/07 04:17:07;;;;;;;2.35;0.93;;;;;;;;;;7103506;27;20038;-82
2021/07/07 04:20:28;;;;;;;1.48;1.20;;;;;;;;;;7111388;27;20164;-81
2021/07/07 04:23:48;;;;;;;1.10;1.00;;;;;;;;;;7105413;27;20053;-82
2021/07/07 04:27:09;;;;;;;2.03;1.20;;;;;;;;;;7110899;27;20051;-82
2021/07/07 04:30:29;;;;;;;3.30;1.10;;;;;;;;;;7106421;27;20051;-81
2021/07/07 04:33:50;;;;;;;1.27;1.17;;;;;;;;;;7100237;27;20042;-81
2021/07/07 04:37:11;;;;;;;1.30;1.20;;;;;;;;;;7110546;27;20046;-80
2021/07/07 04:40:31;;;;;;;1.60;1.50;;;;;;;;;;7110593;27;20046;-80
2021/07/07 04:43:52;;;;;;;1.50;1.40;;;;;;;;;;7108156;27;20118;-81
2021/07/07 04:47:12;;;;;;;2.40;2.20;;;;;;;;;;7109045;27;20043;-80
2021/07/07 04:50:33;;;;;;;2.25;2.10;;;;;;;;;;7108016;27;20508;-80
2021/07/07 04:53:53;;;;;;;2.40;2.20;;;;;;;;;;7104740;27;20057;-80
2021/07/07 04:57:14;;;;;;;2.00;1.90;;;;;;;;;;7108595;27;20051;-80
2021/07/07 05:00:34;;;;;;;2.05;1.95;;;;;;;;;;7100525;27;20042;-80
2021/07/07 05:03:54;;;;;;;5.82;2.05;;;;;;;;;;7107522;27;20430;-79
2021/07/07 05:07:15;;;;;;;2.00;1.90;;;;;;;;;;7108223;27;20156;-79
2021/07/07 05:10:35;;;;;;;2.60;2.35;;;;;;;;;;7108725;27;20038;-79
2021/07/07 05:13:56;;;;;;;2.00;1.90;;;;;;;;;;7074077;27;20618;-81
2021/07/07 05:17:16;;;;;;;1.95;1.85;;;;;;;;;;7100093;27;20039;-84
2021/07/07 05:20:37;;;;;;;1.80;1.70;;;;;;;;;;7101334;27;20043;-83
2021/07/07 05:23:57;;;;;;;2.15;2.00;;;;;;;;;;7095267;27;20469;-82
2021/07/07 05:27:18;;;;;;;2.00;1.90;;;;;;;;;;7108080;27;20078;-82
2021/07/07 05:30:39;;;;;;;1.95;1.85;;;;;;;;;;7107796;27;20513;-81
2021/07/07 05:33:59;;;;;;;1.98;1.88;;;;;;;;;;7093229;27;20096;-84
2021/07/07 05:37:21;;;;;;;2.03;1.90;;;;;;;;;;7100354;27;20078;-82
2021/07/07 05:40:41;;;;;;;4.32;1.80;;;;;;;;;;7107548;27;20046;-82
2021/07/07 05:44:02;;;;;;;2.30;2.20;;;;;;;;;;7093373;27;20046;-82
2021/07/07 05:47:25;;;;;;;3.17;2.00;;;;;;;;;;7107714;27;20042;-81
2021/07/07 05:50:46;;;;;;;2.10;1.92;;;;;;;;;;7091754;27;20456;-82
2021/07/07 05:54:06;;;;;;;2.80;2.22;;;;;;;;;;7092006;27;20068;-81
2021/07/07 05:57:38;;;;;;;2.47;2.20;;;;;;;;;;7108113;27;20544;-81
2021/07/07 06:00:59;;;;;;;1.90;1.80;;;;;;;;;;7105751;27;21005;-81
2021/07/07 06:04:19;;;;;;;1.75;1.65;;;;;;;;;;7094683;27;20126;-82
2021/07/07 06:07:40;;;;;;;3.10;2.10;;;;;;;;;;7094682;27;20050;-81
2021/07/07 06:11:00;;;;;;;2.20;2.10;;;;;;;;;;7094560;27;20468;-80
2021/07/07 06:14:20;;;;;;;2.10;2.00;;;;;;;;;;7104238;27;20050;-81
2021/07/07 06:17:42;;;;;;;2.30;2.10;;;;;;;;;;7107167;27;20496;-81
2021/07/07 06:21:02;;;;;;;2.20;2.00;;;;;;;;;;7105120;27;20043;-80
2021/07/07 06:24:23;;;;;;;2.10;2.00;;;;;;;;;;7108649;27;20046;-80
2021/07/07 06:27:44;;;;;;;2.40;2.20;;;;;;;;;;7098775;27;20046;-81
2021/07/07 06:31:04;;;;;;;2.10;2.00;;;;;;;;;;7107042;27;20104;-80
2021/07/07 06:34:24;;;;;;;3.97;2.03;;;;;;;;;;7108617;27;20038;-81
2021/07/07 06:37:46;;;;;;;2.05;1.95;;;;;;;;;;7100161;27;20521;-82
2021/07/07 06:41:07;;;;;;;2.20;2.00;;;;;;;;;;7107398;27;20064;-81
2021/07/07 06:44:27;;;;;;;2.40;2.20;;;;;;;;;;7109204;27;20043;-81
2021/07/07 06:47:48;;;;;;;1.90;1.80;;;;;;;;;;7100274;27;20192;-82
2021/07/07 06:51:08;;;;;;;3.13;2.30;;;;;;;;;;7099210;27;20047;-82
2021/07/07 06:54:29;;;;;;;4.30;2.45;;;;;;;;;;7105060;27;20086;-83
2021/07/07 06:57:49;;;;;;;2.33;2.22;;;;;;;;;;7110558;27;20050;-82
2021/07/07 07:01:10;;;;;;;2.88;2.00;;;;;;;;;;7111544;27;20124;-81
2021/07/07 07:04:32;;;;;;;3.83;1.92;;;;;;;;;;7111088;27;20115;-81
2021/07/07 07:07:53;;;;;;;2.00;1.90;;;;;;;;;;7111291;27;20063;-83
2021/07/07 07:11:17;;;;;;;2.85;2.28;;;;;;;;;;7111129;27;20095;-82
2021/07/07 07:14:37;;;;;;;2.13;1.92;;;;;;;;;;7082983;27;20047;-81
2021/07/07 07:17:58;;;;;;;4.35;2.50;;;;;;;;;;7110160;27;20092;-82
2021/07/07 07:21:18;;;;;;;3.75;2.25;;;;;;;;;;7096255;27;20055;-82
2021/07/07 07:24:39;;;;;;;2.35;2.15;;;;;;;;;;7110579;27;20129;-81
2021/07/07 07:27:59;;;;;;;2.30;2.10;;;;;;;;;;7109691;27;20125;-81
2021/07/07 07:31:19;;;;;;;3.08;2.33;;;;;;;;;;7110341;27;20050;-82
2021/07/07 07:34:40;;;;;;;2.10;2.00;;;;;;;;;;7110439;27;20103;-81
2021/07/07 07:38:04;;;;;;;3.00;2.25;;;;;;;;;;7111139;27;20142;-81
2021/07/07 07:41:34;;;;;;;4.60;2.47;;;;;;;;;;7111319;27;20039;-80
2021/07/07 07:44:54;;;;;;;2.75;2.30;;;;;;;;;;7112683;27;20492;-80
2021/07/07 07:48:15;;;;;;;2.50;2.30;;;;;;;;;;7111938;27;20134;-79
2021/07/07 07:51:35;;;;;;;2.78;2.20;;;;;;;;;;7110641;27;20495;-80
2021/07/07 07:54:56;;;;;;;2.75;2.50;;;;;;;;;;7104393;27;20484;-78
2021/07/07 07:58:18;;;;;;;2.17;1.92;;;;;;;;;;7101838;27;20050;-80
2021/07/07 08:01:40;;;;;;;4.25;2.65;;;;;;;;;;7109629;27;20091;-80
2021/07/07 08:05:01;;;;;;;2.65;2.08;;;;;;;;;;7105670;27;20505;-80
2021/07/07 08:08:21;;;;;;;2.40;2.20;;;;;;;;;;7099709;27;20496;-80
2021/07/07 08:11:43;;;;;;;2.88;2.58;;;;;;;;;;7109549;27;20047;-80
2021/07/07 08:15:05;;;;;;;2.22;2.03;;;;;;;;;;7109167;27;20051;-81
2021/07/07 08:18:26;;;;;;;2.90;2.17;;;;;;;;;;7109177;27;20057;-81
2021/07/07 08:21:47;;;;;;;3.03;2.22;;;;;;;;;;7109099;27;20050;-81
2021/07/07 08:25:09;;;;;;;2.80;2.38;;;;;;;;;;7092582;27;20446;-81
2021/07/07 08:28:29;;;;;;;3.60;2.20;;;;;;;;;;7080617;27;20499;-81
2021/07/07 08:31:50;;;;;;;4.00;2.20;;;;;;;;;;7096567;27;20122;-82
2021/07/07 08:35:11;;;;;;;3.03;2.42;;;;;;;;;;7108498;27;20045;-82
2021/07/07 08:38:31;;;;;;;2.95;2.35;;;;;;;;;;7095220;27;20119;-82
2021/07/07 08:41:52;;;;;;;2.97;2.28;;;;;;;;;;7080598;27;20043;-81
2021/07/07 08:45:14;;;;;;;4.43;2.33;;;;;;;;;;7108767;27;20043;-82
2021/07/07 08:48:35;;;;;;;2.42;2.20;;;;;;;;;;7108866;27;20049;-81
2021/07/07 08:51:55;;;;;;;2.58;2.20;;;;;;;;;;7108936;27;20046;-81
2021/07/07 08:55:17;;;;;;;3.30;2.15;;;;;;;;;;7104714;27;20492;-80
2021/07/07 08:58:38;;;;;;;4.03;2.25;;;;;;;;;;7108534;27;20460;-81
2021/07/07 09:01:58;;;;;;;3.05;1.38;;;;;;;;;;7108362;27;20499;-81
2021/07/07 09:05:19;;;;;;;6.37;2.07;;;;;;;;;;7107901;27;20050;-81
2021/07/07 09:08:50;;;;;;;10.02;3.08;;;;;;;;;;7108522;27;20451;-80
2021/07/07 09:12:23;;;;;;;6.25;3.00;;;;;;;;;;7104972;27;20393;-81
2021/07/07 09:15:44;;;;;;;6.95;2.60;;;;;;;;;;7075664;27;20061;-80
2021/07/07 09:19:17;;;;;;;4.70;2.33;;;;;;;;;;7108356;27;20043;-80
2021/07/07 09:22:37;;;;;;;7.03;2.88;;;;;;;;;;7108260;27;20084;-80
2021/07/07 09:26:05;;;;;;;13.93;3.20;;;;;;;;;;7108032;27;20099;-80
2021/07/07 09:29:36;;;;;;;5.45;2.40;;;;;;;;;;7093682;27;20035;-80
2021/07/07 09:32:57;;;;;;;10.23;2.85;;;;;;;;;;7082623;27;20059;-80
2021/07/07 09:36:23;;;;;;;5.25;2.60;;;;;;;;;;7093257;27;20095;-78
2021/07/07 09:39:43;;;;;;;10.50;2.80;;;;;;;;;;7097590;27;20046;-80
2021/07/07 09:43:04;;;;;;;6.55;2.47;;;;;;;;;;7104045;27;20118;-80
2021/07/07 09:46:24;;;;;;;7.20;2.65;;;;;;;;;;7087806;27;20046;-79
2021/07/07 09:49:47;;;;;;;9.77;2.60;;;;;;;;;;7100307;27;20039;-79
2021/07/07 09:53:10;;;;;;;5.57;2.42;;;;;;;;;;7109574;27;20468;-79
2021/07/07 09:56:32;;;;;;;9.85;3.00;;;;;;;;;;7110917;27;20128;-79
2021/07/07 09:59:53;;;;;;;7.00;2.50;;;;;;;;;;7105905;27;20085;-80
2021/07/07 10:03:14;;;;;;;5.00;2.80;;;;;;;;;;7100635;27;20043;-81
2021/07/07 10:06:34;;;;;;;9.65;2.33;;;;;;;;;;7116082;27;20479;-80
2021/07/07 10:09:55;;;;;;;9.50;2.75;;;;;;;;;;7095908;27;20071;-79
2021/07/07 10:13:16;;;;;;;6.07;2.63;;;;;;;;;;7105486;27;20042;-80
2021/07/07 10:16:37;;;;;;;5.80;2.67;;;;;;;;;;7114868;27;20129;-79
2021/07/07 10:19:57;;;;;;;4.97;2.30;;;;;;;;;;7101982;27;20042;-79
2021/07/07 10:23:19;;;;;;;7.22;2.20;;;;;;;;;;7101794;27;20050;-80
2021/07/07 10:26:39;;;;;;;6.75;2.63;;;;;;;;;;7093294;27;20058;-80
2021/07/07 10:30:00;;;;;;;12.43;2.50;;;;;;;;;;7078630;27;20043;-81
2021/07/07 10:33:23;;;;;;;5.53;2.38;;;;;;;;;;7098305;27;20042;-81
2021/07/07 10:36:44;;;;;;;9.52;2.70;;;;;;;;;;7097721;27;20062;-80
2021/07/07 10:40:27;;;;;;;6.28;2.33;;;;;;;;;;7098991;27;20058;-79
2021/07/07 10:43:48;;;;;;;6.70;2.40;;;;;;;;;;7085433;27;20035;-80
2021/07/07 10:47:11;;;;;;;19.13;2.53;;;;;;;;;;7114540;27;20103;-79
2021/07/07 10:50:34;;;;;;;6.90;2.38;;;;;;;;;;7099898;27;20504;-79
2021/07/07 10:53:55;;;;;;;7.45;2.60;;;;;;;;;;7115084;27;20051;-79
2021/07/07 10:57:21;;;;;;;7.90;3.05;;;;;;;;;;7092757;27;20191;-79
2021/07/07 11:00:42;;;;;;;10.45;2.35;;;;;;;;;;7100285;27;20147;-79
2021/07/07 11:04:04;;;;;;;9.05;2.25;;;;;;;;;;7093851;27;20054;-79
2021/07/07 11:07:36;;;;;;;5.80;2.42;;;;;;;;;;7104233;27;20047;-78
2021/07/07 11:10:58;;;;;;;3.55;2.05;;;;;;;;;;7097096;27;20421;-78
2021/07/07 11:14:27;;;;;;;10.13;2.35;;;;;;;;;;7114809;27;20099;-78
2021/07/07 11:17:53;;;;;;;10.43;2.80;;;;;;;;;;7113213;27;20129;-78
2021/07/07 11:21:13;;;;;;;8.60;2.30;;;;;;;;;;7113746;27;20484;-80
2021/07/07 11:24:34;;;;;;;5.50;2.45;;;;;;;;;;7112297;27;20142;-79
2021/07/07 11:27:55;;;;;;;3.33;1.92;;;;;;;;;;7101549;27;20047;-79
2021/07/07 11:31:15;;;;;;;6.72;2.25;;;;;;;;;;7109935;27;20050;-77
2021/07/07 11:34:53;;;;;;;4.90;2.05;;;;;;;;;;7112121;27;20138;-78
2021/07/07 11:38:19;;;;;;;7.63;2.63;;;;;;;;;;7108821;27;20043;-79
2021/07/07 11:41:41;;;;;;;3.40;2.00;;;;;;;;;;7110264;27;20100;-77
2021/07/07 11:45:03;;;;;;;6.75;2.10;;;;;;;;;;7098850;27;20050;-77
2021/07/07 11:48:32;;;;;;;2.80;2.00;;;;;;;;;;7109638;27;20510;-77
2021/07/07 11:52:03;;;;;;;13.02;2.03;;;;;;;;;;7108162;27;20047;-78
2021/07/07 11:55:56;;;;;;;12.10;2.13;;;;;;;;;;7104713;27;20046;-78
2021/07/07 11:59:17;;;;;;;5.13;2.17;;;;;;;;;;7095958;27;20100;-78
2021/07/07 12:02:41;;;;;;;3.95;2.20;;;;;;;;;;7098972;27;20454;-78
2021/07/07 12:06:12;;;;;;;3.08;1.90;;;;;;;;;;7103960;27;20077;-78
2021/07/07 12:09:33;;;;;;;2.20;1.90;;;;;;;;;;7089007;27;20054;-78
2021/07/07 12:12:54;;;;;;;4.72;1.90;;;;;;;;;;7098611;27;20138;-79
2021/07/07 12:16:36;;;;;;;3.25;1.90;;;;;;;;;;7073276;27;20046;-78
2021/07/07 12:19:57;;;;;;;3.03;1.98;;;;;;;;;;7082466;27;20043;-78
2021/07/07 12:23:18;;;;;;;4.72;2.15;;;;;;;;;;7101253;27;20070;-78
2021/07/07 12:26:41;;;;;;;2.65;1.77;;;;;;;;;;7096384;27;20107;-79
2021/07/07 12:30:02;;;;;;;2.38;1.58;;;;;;;;;;7097873;27;20055;-79
2021/07/07 12:33:22;;;;;;;4.60;2.03;;;;;;;;;;7090301;27;20057;-79
2021/07/07 12:36:44;;;;;;;4.13;2.00;;;;;;;;;;7086670;27;20079;-79
2021/07/07 12:40:11;;;;;;;7.88;1.80;;;;;;;;;;7076667;27;20057;-79
2021/07/07 12:43:41;;;;;;;8.63;1.83;;;;;;;;;;7092427;27;20060;-79
2021/07/07 12:47:03;;;;;;;2.88;1.95;;;;;;;;;;7071221;27;20411;-79
2021/07/07 12:50:24;;;;;;;3.33;1.92;;;;;;;;;;7101855;27;20080;-83
2021/07/07 12:53:45;;;;;;;2.65;1.63;;;;;;;;;;7093521;27;20055;-82
2021/07/07 12:57:06;;;;;;;1.90;1.67;;;;;;;;;;7087463;27;20050;-82
2021/07/07 13:00:34;;;;;;;2.03;1.70;;;;;;;;;;7084693;27;20051;-83
2021/07/07 13:03:54;;;;;;;3.30;1.80;;;;;;;;;;7102419;27;20051;-79
2021/07/07 13:07:21;;;;;;;2.10;1.48;;;;;;;;;;7095685;27;20046;-80
2021/07/07 13:10:52;;;;;;;3.22;1.80;;;;;;;;;;7107712;27;20046;-78
2021/07/07 13:14:13;;;;;;;1.77;1.60;;;;;;;;;;7101551;27;20400;-79
2021/07/07 13:17:34;;;;;;;2.08;1.77;;;;;;;;;;7105776;27;20133;-78
2021/07/07 13:21:04;;;;;;;2.42;1.70;;;;;;;;;;7093596;27;20041;-79
2021/07/07 13:24:40;;;;;;;2.08;1.60;;;;;;;;;;7102510;27;20118;-80
2021/07/07 13:28:01;;;;;;;5.57;1.65;;;;;;;;;;7058268;22;20060;-79
2021/07/07 13:31:23;;;;;;;2.40;1.65;;;;;;;;;;7039064;28;20401;-80
2021/07/07 13:34:48;;;;;;;1.85;1.58;;;;;;;;;;7048110;28;20139;-80
2021/07/07 13:38:10;;;;;;;4.95;1.67;;;;;;;;;;7045815;28;20081;-79
2021/07/07 13:41:30;;;;;;;1.60;1.50;;;;;;;;;;7046717;28;20082;-79
2021/07/07 13:44:52;;;;;;;4.05;1.58;;;;;;;;;;7047870;28;20405;-79
2021/07/07 13:48:12;;;;;;;1.75;1.55;;;;;;;;;;7040811;28;20115;-81
2021/07/07 13:51:33;;;;;;;3.25;1.92;;;;;;;;;;7048286;28;20050;-82
2021/07/07 13:54:54;;;;;;;6.00;1.40;;;;;;;;;;7049554;28;20044;-81
2021/07/07 13:58:16;;;;;;;2.30;1.50;;;;;;;;;;7049214;28;20043;-80
2021/07/07 14:01:38;;;;;;;2.72;1.73;;;;;;;;;;7046832;28;20052;-81
2021/07/07 14:04:58;;;;;;;2.60;1.50;;;;;;;;;;7047520;28;20135;-80
2021/07/07 14:08:19;;;;;;;3.88;1.83;;;;;;;;;;7048307;28;20051;-80
2021/07/07 14:11:41;;;;;;;1.60;1.50;;;;;;;;;;7041166;28;20052;-80
2021/07/07 14:15:01;;;;;;;2.03;1.60;;;;;;;;;;7052703;28;20052;-80
2021/07/07 14:18:22;;;;;;;2.85;1.45;;;;;;;;;;7047824;28;20083;-82
2021/07/07 14:21:43;;;;;;;1.95;1.40;;;;;;;;;;7038638;28;20545;-83
2021/07/07 14:25:04;;;;;;;8.30;1.60;;;;;;;;;;7033395;28;20060;-82
2021/07/07 14:28:25;;;;;;;2.53;1.60;;;;;;;;;;7050668;28;20086;-81
2021/07/07 14:31:45;;;;;;;2.00;1.63;;;;;;;;;;7042322;28;20052;-83
2021/07/07 14:35:06;;;;;;;2.38;1.63;;;;;;;;;;7054585;28;20040;-83
2021/07/07 14:38:27;;;;;;;2.05;1.77;;;;;;;;;;7055090;28;20051;-82
2021/07/07 14:41:47;;;;;;;2.35;1.17;;;;;;;;;;7046838;28;20119;-82
2021/07/07 14:45:08;;;;;;;4.03;1.40;;;;;;;;;;7053394;28;20493;-81
2021/07/07 14:48:30;;;;;;;2.38;1.58;;;;;;;;;;7052021;28;20111;-83
2021/07/07 14:51:50;;;;;;;1.77;1.40;;;;;;;;;;7046221;28;20118;-82
2021/07/07 14:55:11;;;;;;;2.08;1.50;;;;;;;;;;7029921;28;20043;-81
2021/07/07 14:58:31;;;;;;;2.03;1.38;;;;;;;;;;7056668;28;20104;-82
2021/07/07 15:01:54;;;;;;;2.13;1.55;;;;;;;;;;7056005;28;20039;-81
2021/07/07 15:05:14;;;;;;;1.65;1.27;;;;;;;;;;7050560;28;20051;-83
2021/07/07 15:08:35;;;;;;;2.03;1.65;;;;;;;;;;7035856;28;21046;-80
2021/07/07 15:11:55;;;;;;;1.38;1.27;;;;;;;;;;7048309;28;20044;-82
2021/07/07 15:15:16;;;;;;;2.20;1.65;;;;;;;;;;7047337;28;20439;-82
2021/07/07 15:18:36;;;;;;;1.90;1.45;;;;;;;;;;7049001;28;20039;-82
2021/07/07 15:21:57;;;;;;;1.25;1.13;;;;;;;;;;7040130;28;20060;-82
2021/07/07 15:25:18;;;;;;;1.15;1.15;;;;;;;;;;7051544;28;20073;-81
2021/07/07 15:28:39;;;;;;;3.38;1.70;;;;;;;;;;7042848;28;20044;-80
2021/07/07 15:31:59;;;;;;;4.15;1.20;;;;;;;;;;7051127;28;20031;-79
2021/07/07 15:35:21;;;;;;;2.10;1.67;;;;;;;;;;7051185;28;20109;-80
2021/07/07 15:38:42;;;;;;;1.70;1.23;;;;;;;;;;7051223;28;20039;-80
2021/07/07 15:42:02;;;;;;;3.00;1.42;;;;;;;;;;7046618;28;20077;-80
2021/07/07 15:45:24;;;;;;;2.28;1.20;;;;;;;;;;7051225;28;20036;-80
2021/07/07 15:48:44;;;;;;;1.23;1.15;;;;;;;;;;7032063;28;20469;-82
2021/07/07 15:52:05;;;;;;;2.60;1.77;;;;;;;;;;7053124;28;20576;-80
2021/07/07 15:55:25;;;;;;;3.22;1.10;;;;;;;;;;7033039;28;20516;-81
2021/07/07 15:58:46;;;;;;;1.52;1.40;;;;;;;;;;7030311;28;20550;-80
2021/07/07 16:02:06;;;;;;;2.15;1.35;;;;;;;;;;7040240;28;20126;-79
2021/07/07 16:05:28;;;;;;;1.65;1.55;;;;;;;;;;7034811;28;20040;-80
2021/07/07 16:08:48;;;;;;;4.15;1.30;;;;;;;;;;7033271;28;20481;-81
2021/07/07 16:12:09;;;;;;;1.38;1.27;;;;;;;;;;7017751;28;20047;-81
2021/07/07 16:15:30;;;;;;;1.80;1.55;;;;;;;;;;7027811;28;20166;-82
2021/07/07 16:18:50;;;;;;;2.05;1.30;;;;;;;;;;7031564;28;20043;-82
2021/07/07 16:22:11;;;;;;;2.42;1.30;;;;;;;;;;7048300;28;20599;-82
2021/07/07 16:25:32;;;;;;;1.40;1.30;;;;;;;;;;7044892;28;20062;-81
2021/07/07 16:28:52;;;;;;;1.20;1.10;;;;;;;;;;7035958;28;20085;-80
2021/07/07 16:32:13;;;;;;;1.63;1.50;;;;;;;;;;7030299;28;20052;-81
2021/07/07 16:35:34;;;;;;;2.53;1.20;;;;;;;;;;7036456;28;20042;-81
2021/07/07 16:38:54;;;;;;;2.22;1.10;;;;;;;;;;7027706;28;20054;-81
2021/07/07 16:42:15;;;;;;;4.82;1.25;;;;;;;;;;7034069;28;20044;-84
2021/07/07 16:45:35;;;;;;;2.45;1.30;;;;;;;;;;7024378;28;20043;-83
2021/07/07 16:48:56;;;;;;;1.45;1.35;;;;;;;;;;7024705;28;20087;-84
2021/07/07 16:52:16;;;;;;;1.80;1.40;;;;;;;;;;7052650;28;20043;-84
2021/07/07 16:55:39;;;;;;;1.65;1.33;;;;;;;;;;7052334;28;20489;-83
2021/07/07 16:58:59;;;;;;;1.55;1.42;;;;;;;;;;7035243;28;20078;-82
2021/07/07 17:02:19;;;;;;;1.35;1.25;;;;;;;;;;7041092;28;20114;-82
2021/07/07 17:05:40;;;;;;;2.80;1.10;;;;;;;;;;7036254;28;20378;-83
2021/07/07 17:09:00;;;;;;;1.85;1.15;;;;;;;;;;7047288;28;20131;-83
2021/07/07 17:12:21;;;;;;;1.40;1.30;;;;;;;;;;7053085;28;20039;-83
2021/07/07 17:15:41;;;;;;;1.90;1.30;;;;;;;;;;7025558;28;20052;-83
2021/07/07 17:19:02;;;;;;;3.13;1.15;;;;;;;;;;7029940;28;20050;-83
2021/07/07 17:22:23;;;;;;;1.10;1.00;;;;;;;;;;7041420;28;20032;-83
2021/07/07 17:25:44;;;;;;;1.45;1.05;;;;;;;;;;7038079;28;20036;-82
2021/07/07 17:29:06;;;;;;;1.13;1.02;;;;;;;;;;7037799;28;20052;-85
2021/07/07 17:32:26;;;;;;;4.43;1.30;;;;;;;;;;7049314;28;20059;-84
2021/07/07 17:35:47;;;;;;;2.55;1.45;;;;;;;;;;7023716;28;20068;-86
2021/07/07 17:39:07;;;;;;;1.52;1.08;;;;;;;;;;7023484;28;20062;-85
2021/07/07 17:42:28;;;;;;;3.00;1.20;;;;;;;;;;7045936;28;20070;-83
2021/07/07 17:45:48;;;;;;;1.23;1.13;;;;;;;;;;7040526;28;20500;-84
2021/07/07 17:49:09;;;;;;;2.03;1.27;;;;;;;;;;7029826;28;20040;-84
2021/07/07 17:52:30;;;;;;;2.90;1.20;;;;;;;;;;7049061;28;20124;-84
2021/07/07 17:55:50;;;;;;;1.88;1.30;;;;;;;;;;7030118;28;20074;-83
2021/07/07 17:59:11;;;;;;;1.20;1.10;;;;;;;;;;7035836;28;20397;-84
2021/07/07 18:02:31;;;;;;;2.55;1.30;;;;;;;;;;7046931;28;20050;-84
2021/07/07 18:05:51;;;;;;;1.77;1.20;;;;;;;;;;7048262;28;20205;-84
2021/07/07 18:09:12;;;;;;;1.33;1.20;;;;;;;;;;7039424;28;20044;-83
2021/07/07 18:12:33;;;;;;;1.30;1.20;;;;;;;;;;7048016;28;20075;-84
2021/07/07 18:15:53;;;;;;;1.65;1.02;;;;;;;;;;7054374;28;20603;-85
2021/07/07 18:19:15;;;;;;;1.13;1.10;;;;;;;;;;7045275;28;20490;-86
2021/07/07 18:22:36;;;;;;;3.28;1.20;;;;;;;;;;7050150;28;20055;-86
2021/07/07 18:25:57;;;;;;;1.20;1.10;;;;;;;;;;7046124;28;20059;-86
2021/07/07 18:29:17;;;;;;;1.33;1.23;;;;;;;;;;7029640;28;20079;-86
2021/07/07 18:32:38;;;;;;;2.00;1.00;;;;;;;;;;7047138;28;20135;-86
2021/07/07 18:35:59;;;;;;;1.30;1.20;;;;;;;;;;7029169;28;20044;-86
2021/07/07 18:39:20;;;;;;;1.10;1.10;;;;;;;;;;7054936;28;20071;-86
2021/07/07 18:42:40;;;;;;;1.27;1.17;;;;;;;;;;7048020;28;20503;-87
2021/07/07 18:46:01;;;;;;;1.30;1.20;;;;;;;;;;7026805;28;20055;-86
2021/07/07 18:49:21;;;;;;;1.27;1.17;;;;;;;;;;7045828;28;20174;-86
2021/07/07 18:52:42;;;;;;;1.33;1.00;;;;;;;;;;7045358;28;20047;-86
2021/07/07 18:56:03;;;;;;;1.25;1.10;;;;;;;;;;7052654;28;20047;-87
2021/07/07 18:59:23;;;;;;;1.05;1.00;;;;;;;;;;7041985;28;20040;-87
2021/07/07 19:02:44;;;;;;;2.55;1.20;;;;;;;;;;7043796;28;20071;-86
2021/07/07 19:06:05;;;;;;;1.15;1.10;;;;;;;;;;7051034;28;20040;-86
2021/07/07 19:09:26;;;;;;;1.30;1.10;;;;;;;;;;7035512;28;20079;-86
2021/07/07 19:12:46;;;;;;;1.00;1.00;;;;;;;;;;7043565;28;20047;-86
2021/07/07 19:16:07;;;;;;;1.17;1.08;;;;;;;;;;7053657;28;20052;-86
2021/07/07 19:19:27;;;;;;;1.00;1.00;;;;;;;;;;7044267;28;20051;-85
2021/07/07 19:22:48;;;;;;;1.10;1.00;;;;;;;;;;7032224;28;20405;-86
2021/07/07 19:26:08;;;;;;;3.20;1.20;;;;;;;;;;7046792;28;20130;-86
2021/07/07 19:29:29;;;;;;;1.48;1.10;;;;;;;;;;7017699;28;20055;-86
2021/07/07 19:32:50;;;;;;;1.10;1.00;;;;;;;;;;7050654;28;20489;-86
2021/07/07 19:36:10;;;;;;;1.05;1.05;;;;;;;;;;7043383;28;20509;-86
2021/07/07 19:39:31;;;;;;;1.45;1.35;;;;;;;;;;7036562;28;20075;-86
2021/07/07 19:42:51;;;;;;;1.45;0.98;;;;;;;;;;7041030;28;20496;-86
2021/07/07 19:46:12;;;;;;;1.20;1.10;;;;;;;;;;7045892;28;20075;-86
2021/07/07 19:49:32;;;;;;;1.23;1.10;;;;;;;;;;7040608;28;20067;-86
2021/07/07 19:52:53;;;;;;;1.33;1.23;;;;;;;;;;7042178;28;20097;-86
2021/07/07 19:56:14;;;;;;;1.65;1.02;;;;;;;;;;7051591;28;20497;-85
2021/07/07 19:59:34;;;;;;;1.05;0.95;;;;;;;;;;7040765;28;20039;-86
2021/07/07 20:02:56;;;;;;;1.63;1.23;;;;;;;;;;7046443;28;20172;-85
2021/07/07 20:06:17;;;;;;;1.00;1.00;;;;;;;;;;7044103;28;20419;-85
2021/07/07 20:09:38;;;;;;;1.02;1.02;;;;;;;;;;7021909;28;20490;-85